Time;durP1;ratioP1;P1;durP2;ratioP2;P2;SDS_P1;SDS_P2;PMS_P1;PMS_P2;Temp;Humidity;BMP_temperature;BMP_pressure;BME280_temperature;BME280_humidity;BME280_pressure;Samples;Min_cycle;Max_cycle;Signal;HPM_P1;HPM_P2
2022/01/26 00:00:05;;;;;;;108.40;26.42;;;3.20;99.90;;;;;;5050265;28;20053;-77
2022/01/26 00:07:59;;;;;;;113.72;27.13;;;3.10;99.90;;;;;;5064973;28;20052;-77
2022/01/26 00:10:25;;;;;;;113.78;27.08;;;3.10;99.90;;;;;;5029679;28;20078;-77
2022/01/26 00:12:51;;;;;;;104.45;26.48;;;3.20;99.90;;;;;;5078735;28;20094;-77
2022/01/26 00:15:17;;;;;;;107.30;26.65;;;3.10;99.90;;;;;;5044330;28;20143;-76
2022/01/26 00:17:43;;;;;;;111.18;27.00;;;3.10;99.90;;;;;;5044905;28;20065;-77
2022/01/26 00:20:22;;;;;;;111.05;25.75;;;3.00;99.90;;;;;;5081961;28;20075;-76
2022/01/26 00:27:56;;;;;;;103.15;24.75;;;3.00;99.90;;;;;;5056854;28;20056;-76
2022/01/26 00:41:10;;;;;;;110.63;24.42;;;3.00;99.90;;;;;;5055055;28;20070;-76
2022/01/26 00:43:38;;;;;;;111.32;24.60;;;3.00;99.90;;;;;;5038776;28;20045;-76
2022/01/26 00:46:06;;;;;;;108.28;24.25;;;3.00;99.90;;;;;;5072843;28;20048;-76
2022/01/26 00:48:33;;;;;;;111.43;25.67;;;2.90;99.90;;;;;;5038441;28;20126;-76
2022/01/26 00:51:05;;;;;;;108.30;24.42;;;2.90;99.90;;;;;;5053935;28;20040;-77
2022/01/26 00:54:00;;;;;;;105.18;25.25;;;2.90;99.90;;;;;;5054196;28;20653;-77
2022/01/26 00:56:18;;;;;;;98.50;23.95;;;2.90;99.90;;;;;;5053319;28;20155;-76
2022/01/26 00:58:44;;;;;;;107.72;25.15;;;2.90;99.90;;;;;;5054344;28;20151;-76
2022/01/26 01:01:10;;;;;;;115.75;26.08;;;2.90;99.90;;;;;;5054760;28;20044;-76
2022/01/26 01:03:41;;;;;;;110.30;25.90;;;2.90;99.90;;;;;;5034549;28;20049;-76
2022/01/26 01:06:29;;;;;;;115.07;25.30;;;2.90;99.90;;;;;;5052203;28;20044;-76
2022/01/26 01:08:57;;;;;;;;;;;2.80;99.90;;;;;;5039326;28;20044;-76
2022/01/26 01:11:23;;;;;;;97.32;21.95;;;2.90;99.90;;;;;;5036604;28;20031;-76
2022/01/26 01:13:49;;;;;;;104.03;23.42;;;2.90;99.90;;;;;;5054160;28;20052;-75
2022/01/26 01:16:19;;;;;;;105.20;24.45;;;2.90;99.90;;;;;;5054027;28;20049;-78
2022/01/26 01:18:53;;;;;;;116.40;23.20;;;2.90;99.90;;;;;;5054412;28;20044;-77
2022/01/26 01:29:17;;;;;;;102.35;22.75;;;2.80;99.90;;;;;;5054510;28;20136;-76
2022/01/26 01:31:50;;;;;;;113.10;25.73;;;2.80;99.90;;;;;;5055262;28;20460;-76
2022/01/26 01:34:25;;;;;;;108.45;24.45;;;2.80;99.90;;;;;;5054997;28;20037;-76
2022/01/26 01:36:53;;;;;;;100.72;23.67;;;2.80;99.90;;;;;;5054053;28;20140;-77
2022/01/26 01:39:20;;;;;;;113.15;24.92;;;2.80;99.90;;;;;;5054116;28;20063;-76
2022/01/26 01:41:49;;;;;;;102.03;24.65;;;2.80;99.90;;;;;;5052383;28;20086;-75
2022/01/26 01:44:16;;;;;;;113.55;25.13;;;2.80;99.90;;;;;;5071698;28;20076;-76
2022/01/26 01:46:42;;;;;;;115.07;26.90;;;2.80;99.90;;;;;;5053994;28;20044;-76
2022/01/26 01:49:14;;;;;;;112.63;24.58;;;2.80;99.90;;;;;;5021305;28;20052;-76
2022/01/26 01:51:44;;;;;;;109.50;24.95;;;2.80;99.90;;;;;;5069684;28;20047;-76
2022/01/26 01:54:17;;;;;;;113.07;24.83;;;2.80;99.90;;;;;;5039083;28;20061;-77
2022/01/26 01:56:49;;;;;;;112.10;25.33;;;2.70;99.90;;;;;;5050129;28;20056;-76
2022/01/26 01:59:15;;;;;;;104.72;24.60;;;2.70;99.90;;;;;;5050381;28;20184;-77
2022/01/26 02:01:40;;;;;;;117.40;24.92;;;2.70;99.90;;;;;;5050266;28;20040;-76
2022/01/26 02:04:07;;;;;;;121.82;25.63;;;2.70;99.90;;;;;;5052885;28;20097;-77
2022/01/26 02:06:34;;;;;;;110.47;25.13;;;2.70;99.90;;;;;;5051804;28;20098;-78
2022/01/26 02:09:00;;;;;;;111.18;24.38;;;2.60;99.90;;;;;;5050671;28;20068;-78
2022/01/26 02:11:26;;;;;;;115.93;27.10;;;2.70;99.90;;;;;;5052148;28;20048;-77
2022/01/26 02:16:29;;;;;;;138.10;27.23;;;2.70;99.90;;;;;;5051753;28;20396;-76
2022/01/26 02:49:39;;;;;;;115.18;25.55;;;2.70;99.90;;;;;;5038175;28;20099;-72
2022/01/26 03:00:15;;;;;;;103.70;23.10;;;2.50;99.90;;;;;;5054988;28;20060;-73
2022/01/26 03:05:10;;;;;;;116.28;25.02;;;2.60;99.90;;;;;;5054599;28;20090;-73
2022/01/26 03:07:49;;;;;;;108.95;24.73;;;2.60;99.90;;;;;;5072070;28;20119;-72
2022/01/26 03:10:42;;;;;;;112.60;25.67;;;2.60;99.90;;;;;;5054220;28;20048;-73
2022/01/26 03:13:08;;;;;;;107.38;24.05;;;2.50;99.90;;;;;;5056679;28;20114;-74
2022/01/26 03:15:42;;;;;;;110.70;25.48;;;2.60;99.90;;;;;;5038306;28;20052;-73
2022/01/26 03:20:55;;;;;;;117.28;24.67;;;2.60;99.90;;;;;;5040743;28;20411;-73
2022/01/26 03:36:31;;;;;;;111.68;22.40;;;2.60;99.90;;;;;;5057973;28;20055;-73
2022/01/26 03:39:09;;;;;;;109.55;23.42;;;2.50;99.90;;;;;;5041629;28;20040;-72
2022/01/26 03:44:18;;;;;;;106.63;23.75;;;2.50;99.90;;;;;;5075608;28;20048;-73
2022/01/26 03:46:45;;;;;;;105.45;24.25;;;2.60;99.90;;;;;;5058427;28;20205;-75
2022/01/26 03:49:11;;;;;;;121.80;24.67;;;2.60;99.90;;;;;;5057650;28;20044;-73
2022/01/26 03:51:38;;;;;;;111.10;24.00;;;2.50;99.90;;;;;;5057379;28;20045;-74
2022/01/26 03:54:04;;;;;;;114.30;23.98;;;2.50;99.90;;;;;;5057241;28;20091;-73
2022/01/26 03:56:31;;;;;;;111.18;24.27;;;2.50;99.90;;;;;;5041020;28;20078;-74
2022/01/26 03:58:56;;;;;;;110.80;23.27;;;2.50;99.90;;;;;;5057402;28;20051;-74
2022/01/26 04:01:23;;;;;;;104.35;25.35;;;2.50;99.90;;;;;;5075683;28;20461;-74
2022/01/26 04:03:49;;;;;;;107.30;24.40;;;2.50;99.90;;;;;;5040729;28;20067;-74
2022/01/26 04:06:14;;;;;;;119.85;24.27;;;2.50;99.90;;;;;;5058036;28;20072;-73
2022/01/26 04:08:43;;;;;;;109.40;23.40;;;2.40;99.90;;;;;;5057151;28;20127;-74
2022/01/26 04:11:33;;;;;;;127.22;26.25;;;2.40;99.90;;;;;;5041202;28;20133;-72
2022/01/26 04:14:00;;;;;;;125.97;25.50;;;2.50;99.90;;;;;;5056741;28;20048;-73
2022/01/26 04:16:26;;;;;;;117.68;23.23;;;2.40;99.90;;;;;;5074873;28;20044;-73
2022/01/26 04:18:55;;;;;;;126.38;27.23;;;2.50;99.90;;;;;;5057457;28;20139;-73
2022/01/26 04:22:13;;;;;;;124.25;23.58;;;2.40;99.90;;;;;;5074664;28;20044;-73
2022/01/26 04:26:43;;;;;;;109.38;23.85;;;2.40;99.90;;;;;;5057012;28;20088;-73
2022/01/26 04:29:15;;;;;;;74.50;14.60;;;2.40;99.90;;;;;;5057242;28;20502;-73
2022/01/26 04:31:41;;;;;;;108.47;21.58;;;2.40;99.90;;;;;;5075270;28;20127;-72
2022/01/26 04:34:07;;;;;;;100.03;21.17;;;2.50;99.90;;;;;;5057363;28;20489;-72
2022/01/26 04:39:36;;;;;;;109.30;23.33;;;2.50;99.90;;;;;;5054009;28;20053;-74
2022/01/26 04:42:11;;;;;;;109.03;24.30;;;2.50;99.90;;;;;;5055699;28;20267;-73
2022/01/26 04:44:44;;;;;;;96.28;23.10;;;2.40;99.90;;;;;;5075074;28;20055;-74
2022/01/26 04:47:09;;;;;;;100.22;22.52;;;2.40;99.90;;;;;;5009623;28;20464;-74
2022/01/26 04:49:35;;;;;;;114.07;22.95;;;2.40;99.90;;;;;;5074294;28;20140;-74
2022/01/26 04:52:02;;;;;;;99.50;21.08;;;2.50;99.90;;;;;;5056356;28;20051;-73
2022/01/26 04:54:28;;;;;;;97.68;20.98;;;2.50;99.90;;;;;;5072768;28;20143;-73
2022/01/26 04:56:54;;;;;;;96.85;19.98;;;2.50;99.90;;;;;;5073626;28;20430;-74
2022/01/26 04:59:19;;;;;;;96.30;20.25;;;2.50;99.90;;;;;;5074082;28;20051;-74
2022/01/26 05:01:45;;;;;;;98.80;21.45;;;2.50;99.90;;;;;;5074369;28;20051;-74
2022/01/26 05:04:11;;;;;;;97.50;20.38;;;2.40;99.90;;;;;;5056429;28;20119;-74
2022/01/26 05:06:36;;;;;;;95.13;20.90;;;2.40;99.90;;;;;;5040093;28;20084;-73
2022/01/26 05:09:03;;;;;;;97.63;22.38;;;2.40;99.90;;;;;;5056159;28;20428;-71
2022/01/26 05:11:38;;;;;;;98.55;19.13;;;2.60;99.90;;;;;;5039622;28;20044;-74
2022/01/26 05:14:05;;;;;;;100.53;20.77;;;2.40;99.90;;;;;;5074363;28;20049;-74
2022/01/26 05:16:31;;;;;;;100.47;21.10;;;2.40;99.90;;;;;;5056038;28;20135;-73
2022/01/26 05:18:57;;;;;;;94.95;20.17;;;2.40;99.90;;;;;;5055638;28;20127;-74
2022/01/26 05:21:25;;;;;;;95.50;19.88;;;2.40;99.90;;;;;;5056007;28;20039;-75
2022/01/26 05:23:52;;;;;;;92.30;20.17;;;2.40;99.90;;;;;;5039389;28;20063;-75
2022/01/26 05:26:18;;;;;;;83.50;17.43;;;2.40;99.90;;;;;;5074249;28;20052;-74
2022/01/26 05:28:44;;;;;;;98.63;19.25;;;2.30;99.90;;;;;;5055797;28;20514;-74
2022/01/26 05:31:10;;;;;;;93.20;19.00;;;2.40;99.90;;;;;;5073325;28;20114;-74
2022/01/26 05:33:36;;;;;;;95.53;19.00;;;2.40;99.90;;;;;;5073225;28;20123;-74
2022/01/26 05:36:02;;;;;;;89.05;18.35;;;2.40;99.90;;;;;;5055848;28;20203;-75
2022/01/26 05:38:28;;;;;;;80.30;17.30;;;2.40;99.90;;;;;;5073236;28;20064;-74
2022/01/26 05:40:56;;;;;;;93.75;19.95;;;2.40;99.90;;;;;;5073575;28;20045;-74
2022/01/26 05:43:22;;;;;;;90.63;18.65;;;2.40;99.90;;;;;;5073303;28;20242;-74
2022/01/26 05:45:52;;;;;;;99.60;18.85;;;2.40;99.90;;;;;;5073362;28;20067;-74
2022/01/26 05:48:18;;;;;;;86.50;18.30;;;2.40;99.90;;;;;;5055187;28;20048;-74
2022/01/26 05:50:52;;;;;;;97.68;19.50;;;2.50;99.90;;;;;;5073043;28;20044;-75
2022/01/26 05:53:21;;;;;;;89.22;17.98;;;2.40;99.90;;;;;;5072957;28;20052;-75
2022/01/26 05:55:53;;;;;;;86.65;17.95;;;2.40;99.90;;;;;;5038715;28;20049;-74
2022/01/26 05:58:19;;;;;;;86.93;17.10;;;2.50;99.90;;;;;;5073049;28;20071;-74
2022/01/26 06:00:45;;;;;;;81.95;18.08;;;2.50;99.90;;;;;;5055255;28;20127;-73
2022/01/26 06:03:11;;;;;;;82.18;17.65;;;2.50;99.90;;;;;;5073089;28;20133;-73
2022/01/26 06:05:37;;;;;;;87.95;18.25;;;2.50;99.90;;;;;;5055302;28;20060;-74
2022/01/26 06:08:03;;;;;;;79.22;16.75;;;2.50;99.90;;;;;;5054852;28;20041;-77
2022/01/26 06:10:29;;;;;;;83.60;17.35;;;2.50;99.90;;;;;;5055390;28;20044;-73
2022/01/26 06:12:54;;;;;;;78.95;17.35;;;2.40;99.90;;;;;;5038525;28;20131;-75
2022/01/26 06:15:20;;;;;;;77.57;16.13;;;2.50;99.90;;;;;;5055058;28;20051;-74
2022/01/26 06:17:47;;;;;;;79.43;17.00;;;2.50;99.90;;;;;;5072600;28;20131;-75
2022/01/26 06:20:12;;;;;;;79.53;17.03;;;2.40;99.90;;;;;;5055641;28;20056;-75
2022/01/26 06:22:39;;;;;;;78.82;17.25;;;2.50;99.90;;;;;;5072802;28;20485;-74
2022/01/26 06:25:07;;;;;;;88.22;16.33;;;2.40;99.90;;;;;;5072895;28;20480;-73
2022/01/26 06:27:35;;;;;;;80.75;16.88;;;2.40;99.90;;;;;;5055140;28;20044;-74
2022/01/26 06:30:01;;;;;;;82.18;16.25;;;2.40;99.90;;;;;;5072230;28;20510;-75
2022/01/26 06:32:28;;;;;;;80.38;15.93;;;2.50;99.90;;;;;;5072190;28;20457;-74
2022/01/26 06:34:54;;;;;;;82.88;14.70;;;2.50;99.90;;;;;;5054845;28;20139;-75
2022/01/26 06:37:20;;;;;;;79.03;16.58;;;2.50;99.90;;;;;;5072442;28;20048;-76
2022/01/26 06:39:46;;;;;;;75.78;16.38;;;2.50;99.90;;;;;;5038382;28;20063;-74
2022/01/26 06:42:15;;;;;;;77.45;15.10;;;2.50;99.90;;;;;;5037822;28;20040;-76
2022/01/26 06:44:54;;;;;;;79.72;15.68;;;2.50;99.90;;;;;;5072509;28;20127;-74
2022/01/26 06:47:45;;;;;;;76.88;18.30;;;2.50;99.90;;;;;;5054380;28;20053;-72
2022/01/26 06:50:06;;;;;;;76.45;18.08;;;2.50;99.90;;;;;;5054118;28;20056;-74
2022/01/26 06:52:32;;;;;;;78.50;16.38;;;2.50;99.90;;;;;;5072319;28;20048;-74
2022/01/26 06:54:58;;;;;;;69.18;15.65;;;2.50;99.90;;;;;;5054552;28;20053;-74
2022/01/26 06:57:23;;;;;;;77.00;16.50;;;2.50;99.90;;;;;;5072556;28;20435;-74
2022/01/26 06:59:49;;;;;;;80.47;16.10;;;2.60;99.90;;;;;;5037745;28;20052;-74
2022/01/26 07:02:15;;;;;;;85.20;18.35;;;2.60;99.90;;;;;;5054664;28;20048;-75
2022/01/26 07:04:40;;;;;;;80.55;17.13;;;2.50;99.90;;;;;;5056111;28;20048;-73
2022/01/26 07:07:06;;;;;;;75.30;17.38;;;2.50;99.90;;;;;;5058567;28;20044;-75
2022/01/26 07:09:32;;;;;;;80.65;16.05;;;2.50;99.90;;;;;;5058866;28;20049;-74
2022/01/26 07:11:58;;;;;;;78.88;18.08;;;2.50;99.90;;;;;;5076269;28;20040;-74
2022/01/26 07:19:46;;;;;;;80.47;17.63;;;2.50;99.90;;;;;;5058843;28;20056;-74
2022/01/26 07:20:02;;;;;;;81.30;17.73;;;2.50;99.90;;;;;;5058377;28;20381;-72
2022/01/26 07:22:28;;;;;;;86.55;18.80;;;2.50;99.90;;;;;;5076053;28;20503;-74
2022/01/26 07:24:53;;;;;;;84.93;18.05;;;2.60;99.90;;;;;;5058252;28;20040;-72
2022/01/26 07:27:19;;;;;;;82.97;18.95;;;2.60;99.90;;;;;;5041720;28;20480;-73
2022/01/26 07:29:48;;;;;;;84.82;20.17;;;2.60;99.90;;;;;;5041443;28;20423;-73
2022/01/26 07:32:14;;;;;;;93.18;20.67;;;2.60;99.90;;;;;;5075534;28;20098;-72
2022/01/26 07:34:41;;;;;;;86.20;19.92;;;2.60;99.90;;;;;;5058001;28;20548;-74
2022/01/26 07:37:09;;;;;;;89.00;20.10;;;2.60;99.90;;;;;;5076136;28;20101;-74
2022/01/26 07:39:49;;;;;;;86.03;20.48;;;2.60;99.90;;;;;;5058130;28;20097;-74
2022/01/26 07:42:15;;;;;;;96.97;22.95;;;2.70;99.90;;;;;;5059869;28;20056;-73
2022/01/26 07:44:41;;;;;;;80.82;17.05;;;2.70;99.90;;;;;;5075616;28;20045;-73
2022/01/26 07:47:07;;;;;;;86.35;19.60;;;2.80;99.90;;;;;;5057884;28;20068;-73
2022/01/26 07:49:32;;;;;;;99.05;23.23;;;2.70;99.90;;;;;;5057652;28;20060;-75
2022/01/26 07:51:58;;;;;;;99.72;21.48;;;2.70;99.90;;;;;;5075379;28;20041;-75
2022/01/26 07:54:25;;;;;;;101.10;23.40;;;2.70;99.90;;;;;;5075696;28;20362;-74
2022/01/26 07:56:51;;;;;;;103.30;25.52;;;2.70;99.90;;;;;;5037679;28;20497;-74
2022/01/26 07:59:16;;;;;;;103.30;24.60;;;2.70;99.90;;;;;;5055122;28;20041;-73
2022/01/26 08:01:42;;;;;;;111.25;26.77;;;2.80;99.90;;;;;;5054450;28;20347;-75
2022/01/26 08:04:08;;;;;;;114.97;27.55;;;2.70;99.90;;;;;;5054559;28;20123;-74
2022/01/26 08:06:34;;;;;;;113.65;25.25;;;2.70;99.90;;;;;;5053923;28;20525;-74
2022/01/26 08:09:00;;;;;;;109.03;26.83;;;2.70;99.90;;;;;;5053661;28;20044;-75
2022/01/26 08:11:26;;;;;;;113.35;27.50;;;2.80;99.90;;;;;;5054866;28;20535;-73
2022/01/26 08:13:52;;;;;;;97.88;23.25;;;2.70;99.90;;;;;;5054957;28;20053;-74
2022/01/26 08:16:18;;;;;;;120.75;27.63;;;2.80;99.90;;;;;;5037509;28;20053;-74
2022/01/26 08:18:44;;;;;;;112.82;26.80;;;2.80;99.90;;;;;;5020428;28;20056;-74
2022/01/26 08:21:10;;;;;;;122.75;28.77;;;2.80;99.90;;;;;;5037056;28;20048;-74
2022/01/26 08:23:37;;;;;;;127.60;30.00;;;2.80;99.90;;;;;;5053665;28;20044;-73
2022/01/26 08:26:04;;;;;;;124.18;32.90;;;2.90;99.90;;;;;;5054236;28;20464;-74
2022/01/26 08:28:39;;;;;;;130.68;32.03;;;2.80;99.90;;;;;;5054854;28;20060;-75
2022/01/26 08:31:05;;;;;;;130.43;30.88;;;2.90;99.90;;;;;;5054999;28;20048;-74
2022/01/26 08:33:31;;;;;;;135.00;31.83;;;2.90;99.90;;;;;;5053664;28;20037;-73
2022/01/26 08:35:57;;;;;;;135.75;32.70;;;3.00;99.90;;;;;;5053729;28;20053;-73
2022/01/26 08:38:23;;;;;;;134.63;31.98;;;3.00;99.90;;;;;;5053451;28;20049;-74
2022/01/26 08:40:49;;;;;;;143.00;34.20;;;3.00;99.90;;;;;;5053692;28;20150;-74
2022/01/26 08:43:16;;;;;;;;;;;3.00;99.90;;;;;;5037297;28;20057;-73
2022/01/26 08:45:42;;;;;;;124.95;29.77;;;3.00;99.90;;;;;;5054211;28;20419;-73
2022/01/26 08:48:09;;;;;;;127.32;31.77;;;3.10;99.90;;;;;;5053182;28;20049;-73
2022/01/26 08:50:35;;;;;;;140.70;34.42;;;3.10;99.90;;;;;;5036998;28;20489;-74
2022/01/26 08:53:01;;;;;;;141.35;33.35;;;3.10;99.90;;;;;;5053090;28;20052;-75
2022/01/26 08:55:27;;;;;;;136.32;32.60;;;3.10;99.90;;;;;;5036660;28;20056;-76
2022/01/26 08:57:52;;;;;;;159.30;36.28;;;3.20;99.90;;;;;;5019542;28;20068;-75
2022/01/26 09:00:18;;;;;;;146.77;35.92;;;3.20;99.90;;;;;;5036783;28;20131;-75
2022/01/26 09:02:46;;;;;;;143.88;36.55;;;3.20;99.90;;;;;;5053405;28;20465;-74
2022/01/26 09:05:13;;;;;;;135.35;34.45;;;3.30;99.90;;;;;;5053277;28;20052;-76
2022/01/26 09:07:42;;;;;;;149.10;35.20;;;3.30;99.90;;;;;;5053328;28;20048;-75
2022/01/26 09:10:08;;;;;;;154.38;35.30;;;3.30;99.90;;;;;;5036554;28;20045;-76
2022/01/26 09:12:37;;;;;;;152.23;36.97;;;3.30;99.90;;;;;;5054110;28;20182;-76
2022/01/26 09:15:06;;;;;;;171.95;37.55;;;3.40;99.90;;;;;;5052866;28;20056;-76
2022/01/26 09:17:34;;;;;;;165.07;41.10;;;3.40;99.90;;;;;;5052807;28;20052;-76
2022/01/26 09:20:01;;;;;;;158.30;36.15;;;3.40;99.90;;;;;;5036438;28;20128;-75
2022/01/26 09:22:27;;;;;;;162.40;39.50;;;3.40;99.90;;;;;;5036275;28;20396;-74
2022/01/26 09:24:53;;;;;;;164.40;38.92;;;3.40;99.90;;;;;;5053937;28;20110;-75
2022/01/26 09:27:19;;;;;;;174.98;40.60;;;3.40;99.90;;;;;;5035660;28;20444;-74
2022/01/26 09:29:46;;;;;;;170.52;41.13;;;3.50;99.90;;;;;;5035637;28;20045;-75
2022/01/26 09:32:13;;;;;;;175.82;43.42;;;3.50;99.90;;;;;;5053462;28;20499;-75
2022/01/26 09:34:40;;;;;;;166.98;38.75;;;3.50;99.90;;;;;;5053409;28;20057;-75
2022/01/26 09:37:07;;;;;;;167.95;40.85;;;3.50;99.90;;;;;;5053832;28;20116;-76
2022/01/26 09:39:33;;;;;;;172.57;40.20;;;3.50;99.90;;;;;;5052626;28;20084;-73
2022/01/26 09:42:02;;;;;;;168.85;40.13;;;3.50;99.90;;;;;;5053663;28;20045;-75
2022/01/26 09:44:33;;;;;;;166.00;42.22;;;3.60;99.90;;;;;;5052739;28;20384;-74
2022/01/26 09:46:59;;;;;;;153.63;38.15;;;3.60;99.90;;;;;;5053595;28;20041;-75
2022/01/26 09:49:33;;;;;;;174.38;40.47;;;3.60;99.90;;;;;;5052385;28;20041;-76
2022/01/26 09:52:21;;;;;;;159.02;37.88;;;3.60;99.90;;;;;;5052745;28;20045;-73
2022/01/26 09:54:47;;;;;;;157.05;38.50;;;3.60;99.90;;;;;;5035448;28;20056;-76
2022/01/26 09:57:13;;;;;;;164.23;41.27;;;3.70;99.90;;;;;;5067988;28;20388;-75
2022/01/26 09:59:39;;;;;;;162.15;37.97;;;3.70;99.90;;;;;;5038481;28;20048;-75
2022/01/26 10:02:08;;;;;;;164.38;37.70;;;3.70;99.90;;;;;;5039017;28;20177;-75
2022/01/26 10:04:40;;;;;;;165.40;37.95;;;3.70;99.90;;;;;;5038859;28;20135;-76
2022/01/26 10:17:42;;;;;;;159.38;38.60;;;3.80;99.90;;;;;;5055366;28;20053;-74
2022/01/26 10:20:10;;;;;;;155.98;37.72;;;3.80;99.90;;;;;;5022379;28;20450;-74
2022/01/26 10:22:36;;;;;;;157.27;35.47;;;3.80;99.90;;;;;;5038619;28;20048;-75
2022/01/26 10:25:11;;;;;;;153.48;37.33;;;3.90;99.90;;;;;;5072873;28;20125;-76
2022/01/26 10:27:43;;;;;;;148.60;36.55;;;3.90;99.90;;;;;;5055556;28;20105;-75
2022/01/26 10:30:12;;;;;;;158.70;37.88;;;4.10;99.90;;;;;;5073577;28;20373;-75
2022/01/26 10:32:39;;;;;;;139.70;33.55;;;4.00;99.90;;;;;;5072609;28;20553;-75
2022/01/26 10:35:06;;;;;;;139.63;33.53;;;4.00;99.90;;;;;;5054822;28;20040;-75
2022/01/26 10:37:33;;;;;;;144.52;34.88;;;4.00;99.90;;;;;;5038290;28;20373;-75
2022/01/26 10:40:17;;;;;;;136.90;33.40;;;4.00;99.90;;;;;;5054471;28;20056;-77
2022/01/26 10:42:54;;;;;;;139.35;32.75;;;4.10;99.90;;;;;;5072503;28;20086;-74
2022/01/26 10:45:54;;;;;;;136.95;33.50;;;4.10;99.90;;;;;;5038763;28;20052;-77
2022/01/26 10:48:43;;;;;;;129.25;32.10;;;4.10;99.90;;;;;;5038254;28;20056;-75
2022/01/26 10:51:39;;;;;;;120.80;28.67;;;4.10;99.90;;;;;;5055004;28;20096;-74
2022/01/26 10:54:20;;;;;;;133.25;30.58;;;4.20;99.90;;;;;;5054762;28;20450;-74
2022/01/26 10:56:52;;;;;;;123.53;30.65;;;4.20;99.90;;;;;;5027442;28;20080;-74
2022/01/26 10:59:18;;;;;;;117.72;25.88;;;4.20;99.90;;;;;;5054691;28;20052;-74
2022/01/26 11:01:45;;;;;;;107.53;28.65;;;4.20;99.90;;;;;;5072422;28;20072;-75
2022/01/26 11:04:10;;;;;;;118.68;29.75;;;4.20;99.90;;;;;;5037870;28;20102;-75
2022/01/26 11:06:37;;;;;;;117.63;31.75;;;;;;;;;;5055065;28;20373;-75
2022/01/26 11:09:13;;;;;;;128.25;32.55;;;4.30;99.90;;;;;;5038118;28;20162;-73
2022/01/26 11:11:40;;;;;;;132.13;34.85;;;4.30;99.90;;;;;;5054947;28;20048;-74
2022/01/26 11:14:22;;;;;;;119.40;31.08;;;4.30;99.90;;;;;;5038249;28;20059;-73
2022/01/26 11:16:54;;;;;;;133.05;31.85;;;4.30;99.90;;;;;;5037831;28;20080;-74
2022/01/26 11:19:21;;;;;;;127.82;31.73;;;4.40;99.90;;;;;;5054823;28;20127;-74
2022/01/26 11:21:47;;;;;;;134.18;32.65;;;4.40;99.90;;;;;;5037724;28;20166;-74
2022/01/26 11:24:21;;;;;;;126.97;30.55;;;4.40;99.90;;;;;;5071962;28;20549;-74
2022/01/26 11:26:49;;;;;;;114.97;30.35;;;4.50;99.90;;;;;;5038599;28;20139;-74
2022/01/26 11:29:32;;;;;;;128.25;36.50;;;4.40;99.90;;;;;;5054485;28;20135;-73
2022/01/26 11:32:18;;;;;;;107.15;28.83;;;4.40;99.90;;;;;;5072291;28;20542;-74
2022/01/26 11:34:48;;;;;;;119.72;28.17;;;4.40;99.90;;;;;;5054249;28;20100;-74
2022/01/26 11:37:16;;;;;;;115.82;30.63;;;4.40;99.90;;;;;;5072239;28;20050;-74
2022/01/26 11:45:35;;;;;;;119.55;29.77;;;4.40;99.90;;;;;;5071839;28;20132;-75
2022/01/26 11:48:09;;;;;;;118.07;29.67;;;4.40;99.90;;;;;;5054163;28;20056;-79
2022/01/26 11:50:38;;;;;;;114.88;28.95;;;4.40;99.90;;;;;;5055701;28;20083;-76
2022/01/26 11:53:10;;;;;;;115.60;29.20;;;4.40;99.90;;;;;;5075574;28;20040;-74
2022/01/26 11:55:40;;;;;;;109.30;24.08;;;4.40;99.90;;;;;;5057575;28;20079;-75
2022/01/26 11:58:38;;;;;;;105.10;26.20;;;4.50;99.90;;;;;;5058317;28;20404;-75
2022/01/26 12:01:26;;;;;;;96.38;25.40;;;4.50;99.90;;;;;;5058182;28;20055;-73
2022/01/26 12:04:01;;;;;;;99.40;25.35;;;4.50;99.90;;;;;;5058237;28;20095;-75
2022/01/26 12:06:34;;;;;;;107.63;30.65;;;4.50;99.90;;;;;;5058113;28;20082;-75
2022/01/26 12:09:01;;;;;;;103.45;26.77;;;4.50;99.90;;;;;;5041149;28;20045;-74
2022/01/26 12:11:30;;;;;;;99.80;26.58;;;4.50;99.90;;;;;;5075821;28;20044;-74
2022/01/26 12:14:19;;;;;;;98.60;24.23;;;4.50;99.90;;;;;;5058007;28;20084;-73
2022/01/26 12:16:48;;;;;;;107.85;26.60;;;4.50;99.90;;;;;;5075332;28;20055;-74
2022/01/26 12:36:15;;;;;;;93.40;24.45;;;4.50;99.90;;;;;;5075197;28;20150;-75
2022/01/26 12:43:43;;;;;;;102.57;24.92;;;4.60;99.90;;;;;;5057071;28;20084;-75
2022/01/26 12:46:19;;;;;;;89.35;22.80;;;4.70;99.90;;;;;;5040527;28;20045;-74
2022/01/26 12:48:54;;;;;;;101.30;24.88;;;4.70;99.90;;;;;;5075647;28;20154;-74
2022/01/26 12:51:21;;;;;;;97.65;26.08;;;4.70;99.90;;;;;;5057566;28;20131;-74
2022/01/26 12:54:02;;;;;;;95.10;24.10;;;4.80;99.90;;;;;;5056227;28;20536;-75
2022/01/26 12:56:30;;;;;;;98.63;23.73;;;4.80;99.90;;;;;;5036643;28;20053;-75
2022/01/26 12:59:01;;;;;;;93.88;24.98;;;4.80;99.90;;;;;;5036876;28;20478;-75
2022/01/26 13:01:26;;;;;;;93.63;24.50;;;4.90;99.90;;;;;;5053180;28;20056;-75
2022/01/26 13:03:58;;;;;;;95.70;25.98;;;4.80;99.90;;;;;;5036371;28;20044;-75
2022/01/26 13:06:27;;;;;;;106.43;25.65;;;4.80;99.90;;;;;;5054335;28;20096;-74
2022/01/26 13:08:58;;;;;;;91.28;24.02;;;4.70;99.90;;;;;;5053120;28;20099;-74
2022/01/26 13:11:28;;;;;;;101.78;26.55;;;4.70;99.90;;;;;;5055081;28;20401;-74
2022/01/26 13:14:15;;;;;;;94.97;25.02;;;4.70;99.90;;;;;;5053146;28;20104;-73
2022/01/26 13:22:44;;;;;;;104.13;26.15;;;4.60;99.90;;;;;;5053905;28;20049;-75
2022/01/26 13:30:47;;;;;;;90.70;24.73;;;4.60;99.90;;;;;;5053784;28;20049;-74
2022/01/26 13:34:01;;;;;;;109.18;25.85;;;4.60;99.90;;;;;;5036749;28;20051;-76
2022/01/26 13:36:31;;;;;;;90.45;23.88;;;4.60;99.90;;;;;;5052234;28;20412;-73
2022/01/26 14:01:44;;;;;;;97.10;23.77;;;4.70;99.90;;;;;;5052746;28;20052;-74
2022/01/26 14:04:12;;;;;;;98.40;27.90;;;4.70;99.90;;;;;;5052367;28;20119;-75
2022/01/26 14:06:38;;;;;;;96.30;26.02;;;4.70;99.90;;;;;;5053949;28;20045;-74
2022/01/26 14:09:04;;;;;;;101.80;27.50;;;4.60;99.90;;;;;;5035528;28;20443;-74
2022/01/26 14:11:32;;;;;;;96.93;26.02;;;4.70;99.90;;;;;;5053243;28;20045;-74
2022/01/26 14:14:02;;;;;;;100.75;26.67;;;4.70;99.90;;;;;;5052046;28;20049;-75
2022/01/26 14:16:33;;;;;;;92.25;24.05;;;4.70;99.90;;;;;;5054115;28;20437;-74
2022/01/26 14:19:08;;;;;;;92.68;25.10;;;4.80;99.90;;;;;;5053042;28;20113;-72
2022/01/26 14:26:46;;;;;;;96.03;23.33;;;4.90;99.90;;;;;;5052776;28;20044;-73
2022/01/26 14:32:15;;;;;;;86.43;23.70;;;4.90;99.90;;;;;;5051791;28;20110;-75
2022/01/26 14:51:22;;;;;;;88.63;22.77;;;5.10;99.90;;;;;;5051486;28;20068;-72
2022/01/26 15:32:28;;;;;;;80.63;22.33;;;5.00;99.90;;;;;;5076291;28;20056;-73
2022/01/26 15:45:02;;;;;;;89.13;24.48;;;5.00;99.90;;;;;;5057990;28;20049;-74
2022/01/26 15:58:16;;;;;;;76.85;20.77;;;5.10;99.90;;;;;;5057558;28;20110;-74
2022/01/26 16:06:20;;;;;;;82.22;21.05;;;5.10;99.90;;;;;;5058176;28;20358;-73
2022/01/26 16:39:28;;;;;;;86.15;23.10;;;5.00;99.90;;;;;;5075371;28;20088;-73
2022/01/26 17:11:12;;;;;;;89.13;24.50;;;4.90;99.90;;;;;;5056869;28;20458;-74
2022/01/26 17:55:23;;;;;;;87.78;25.65;;;5.00;99.90;;;;;;5073206;28;20049;-72
2022/01/26 18:16:44;;;;;;;77.10;24.13;;;5.00;99.90;;;;;;5073620;28;20380;-73
2022/01/26 18:51:22;;;;;;;64.72;19.08;;;5.10;99.90;;;;;;5055145;28;20095;-72
2022/01/26 18:53:48;;;;;;;80.60;23.08;;;5.20;99.90;;;;;;5037331;28;20439;-73
2022/01/26 18:56:14;;;;;;;93.82;25.98;;;5.10;99.90;;;;;;5053963;28;20056;-73
2022/01/26 18:58:39;;;;;;;87.30;24.45;;;5.10;99.90;;;;;;5054404;28;20477;-73
2022/01/26 19:01:05;;;;;;;80.10;22.95;;;5.10;99.90;;;;;;5053718;28;20076;-73
2022/01/26 19:03:31;;;;;;;81.32;22.98;;;5.10;99.90;;;;;;5072177;28;20122;-72
2022/01/26 19:06:00;;;;;;;72.78;22.08;;;5.10;99.90;;;;;;5054028;28;20044;-73
2022/01/26 19:08:28;;;;;;;83.38;24.60;;;5.10;99.90;;;;;;5071938;28;20040;-73
2022/01/26 19:10:54;;;;;;;83.15;23.08;;;5.20;99.90;;;;;;5054443;28;20105;-74
2022/01/26 19:13:25;;;;;;;89.65;28.40;;;5.10;99.90;;;;;;5054003;28;20127;-74
2022/01/26 19:15:54;;;;;;;79.40;24.98;;;5.10;99.90;;;;;;5055755;28;20120;-74
2022/01/26 19:18:27;;;;;;;83.18;23.67;;;5.20;99.90;;;;;;5054104;28;20048;-73
2022/01/26 19:21:05;;;;;;;86.70;27.38;;;5.10;99.90;;;;;;5037833;28;20475;-74
2022/01/26 19:24:30;;;;;;;78.25;23.50;;;5.20;99.90;;;;;;5072466;28;20435;-74
2022/01/26 19:26:24;;;;;;;75.30;23.67;;;5.20;99.90;;;;;;5032941;28;20075;-73
2022/01/26 19:28:57;;;;;;;79.97;25.08;;;5.20;99.90;;;;;;5038645;28;20094;-74
2022/01/26 19:53:09;;;;;;;74.18;23.35;;;5.30;99.90;;;;;;5054586;28;20087;-75
2022/01/26 19:55:34;;;;;;;;;;;5.30;99.90;;;;;;5054719;28;20120;-75
2022/01/26 19:58:01;;;;;;;73.35;22.70;;;5.40;99.90;;;;;;5053804;28;20049;-74
2022/01/26 20:00:27;;;;;;;67.60;22.65;;;5.40;99.90;;;;;;5053566;28;20056;-73